Quinebaug, Connecticut
Current Conditions -  °F | °C
As of 3:54 AM on Wednesday 26 Nov 2014 (Local Time) from KORH Reporting Station
Clear Clear  
Wind Chill: 39°   Ceiling: Unl
Heat Index: 39°   Visibility: 10mi
Dew Point: 27°   Wind: 3mph
Humidity: 62%   Direction: 240°WSW
Pressure: 30.18"   Gusts: NA
Location:  42.01°N, 71.94°W
Report Text: KORH 260854Z AUTO 24003KT 10SM CLR 04/M03 A3018 RMK AO2 SLP227 T00391028 53021
Loading
Personal Weather Stations






























Interactive Weather Map New forecast layout! Learn more

10-Day Weather Forecast

Advertisements
Track Severe Weather on mobile